Time;durP1;ratioP1;P1;durP2;ratioP2;P2;SDS_P1;SDS_P2;PMS_P1;PMS_P2;Temp;Humidity;BMP_temperature;BMP_pressure;BME280_temperature;BME280_humidity;BME280_pressure;Samples;Min_cycle;Max_cycle;Signal;HPM_P1;HPM_P2
2022/03/19 00:02:22;;;;;;;14.30;2.70;;;;;;;2.78;100.00;104649.88;10330791;28;20061;-72
2022/03/19 00:07:23;;;;;;;11.48;2.40;;;;;;;2.93;100.00;104687.88;10313902;28;20034;-72
2022/03/19 00:12:23;;;;;;;8.15;2.42;;;;;;;2.85;100.00;104685.69;10314310;28;20414;-72
2022/03/19 00:17:24;;;;;;;7.93;1.90;;;;;;;2.82;100.00;104683.19;10330449;28;20030;-72
2022/03/19 00:22:24;;;;;;;13.15;2.55;;;;;;;2.73;100.00;104679.28;10346362;28;20053;-72
2022/03/19 00:27:25;;;;;;;16.05;2.97;;;;;;;2.66;100.00;104680.69;10297314;28;20174;-72
2022/03/19 00:32:26;;;;;;;18.85;2.83;;;;;;;2.69;100.00;104687.75;10313607;28;20502;-72
2022/03/19 00:37:26;;;;;;;15.10;3.53;;;;;;;2.57;100.00;104684.94;10314009;28;20046;-72
2022/03/19 00:42:26;;;;;;;6.95;2.20;;;;;;;2.53;100.00;104693.41;10345958;28;20069;-72
2022/03/19 00:47:27;;;;;;;11.88;2.95;;;;;;;2.35;100.00;104662.91;10296679;28;20042;-72
2022/03/19 00:52:27;;;;;;;14.05;2.33;;;;;;;2.32;100.00;104676.75;10297104;28;20041;-72
2022/03/19 00:57:28;;;;;;;13.40;2.95;;;;;;;2.27;100.00;104692.50;10298589;28;20114;-72
2022/03/19 01:02:28;;;;;;;18.42;4.28;;;;;;;2.17;100.00;104682.25;10275928;28;20110;-72
2022/03/19 01:07:29;;;;;;;14.13;2.72;;;;;;;2.09;100.00;104684.63;10257703;28;20054;-72
2022/03/19 01:12:29;;;;;;;14.70;3.97;;;;;;;1.77;100.00;104635.16;10289017;28;20050;-72
2022/03/19 01:17:30;;;;;;;11.45;3.05;;;;;;;2.07;100.00;104685.69;10281283;28;20046;-72
2022/03/19 01:22:31;;;;;;;15.77;3.03;;;;;;;2.08;100.00;104677.44;10297212;28;20047;-72
2022/03/19 01:27:32;;;;;;;23.33;3.90;;;;;;;2.10;100.00;104674.63;10289683;28;20049;-72
2022/03/19 01:32:33;;;;;;;15.88;3.50;;;;;;;2.15;100.00;104678.78;10287901;28;20048;-72
2022/03/19 01:37:33;;;;;;;16.98;3.22;;;;;;;1.95;100.00;104638.50;10316121;28;20498;-73
2022/03/19 01:42:35;;;;;;;17.08;4.35;;;;;;;2.13;100.00;104663.50;10352140;28;20038;-72
2022/03/19 01:47:36;;;;;;;26.77;4.75;;;;;;;2.15;100.00;104667.91;10336393;28;20046;-72
2022/03/19 01:52:36;;;;;;;16.30;3.90;;;;;;;2.17;100.00;104681.38;10335713;28;20046;-72
2022/03/19 01:57:40;;;;;;;18.15;4.95;;;;;;;2.13;100.00;104664.41;10286914;28;20096;-72
2022/03/19 02:02:41;;;;;;;14.68;4.57;;;;;;;2.15;100.00;104657.03;10285876;28;20050;-72
2022/03/19 02:07:42;;;;;;;22.02;5.55;;;;;;;2.12;100.00;104646.34;10319113;28;20063;-72
2022/03/19 02:12:44;;;;;;;17.13;4.32;;;;;;;1.99;100.00;104645.47;10287108;28;20062;-73
2022/03/19 02:17:45;;;;;;;19.17;4.22;;;;;;;2.13;100.00;104669.84;10303471;28;20077;-72
2022/03/19 02:25:34;;;;;;;17.23;3.22;;;;;;;1.99;100.00;104645.47;10279477;28;20055;-72
2022/03/19 02:28:06;;;;;;;20.83;4.38;;;;;;;1.87;100.00;104646.28;10295564;28;20138;-72
2022/03/19 02:33:07;;;;;;;17.73;4.50;;;;;;;1.92;100.00;104642.28;10275788;28;20047;-73
2022/03/19 02:38:08;;;;;;;15.65;4.90;;;;;;;1.93;100.00;104651.31;10276403;28;20049;-72
2022/03/19 02:43:08;;;;;;;16.20;4.63;;;;;;;1.80;100.00;104635.84;10308051;28;20053;-72
2022/03/19 02:48:11;;;;;;;25.50;6.35;;;;;;;1.77;100.00;104640.59;10278229;28;20042;-73
2022/03/19 02:53:11;;;;;;;16.95;5.78;;;;;;;1.76;100.00;104637.03;10292928;28;20054;-72
2022/03/19 02:58:12;;;;;;;12.52;5.57;;;;;;;1.74;100.00;104641.69;10275454;28;20051;-72
2022/03/19 03:03:12;;;;;;;17.42;5.25;;;;;;;1.66;100.00;104633.19;10276466;28;20050;-72
2022/03/19 03:08:13;;;;;;;16.80;4.82;;;;;;;1.54;100.00;104621.28;10276544;28;20034;-72
2022/03/19 03:13:13;;;;;;;15.02;5.88;;;;;;;1.63;100.00;104622.50;10276921;28;20062;-72
2022/03/19 03:18:14;;;;;;;31.40;6.68;;;;;;;1.53;100.00;104621.38;10308526;28;20034;-72
2022/03/19 03:23:14;;;;;;;21.00;7.28;;;;;;;1.50;100.00;104637.88;10316456;28;20051;-72
2022/03/19 03:28:15;;;;;;;20.27;6.32;;;;;;;1.39;100.00;104634.03;10315444;28;20093;-72
2022/03/19 03:33:15;;;;;;;23.52;6.15;;;;;;;1.25;100.00;104617.78;10331482;28;20069;-72
2022/03/19 03:38:16;;;;;;;16.75;7.75;;;;;;;1.30;100.00;104640.09;10297954;28;20072;-72
2022/03/19 03:43:17;;;;;;;15.85;6.35;;;;;;;1.27;100.00;104637.56;10298912;28;20043;-72
2022/03/19 03:48:17;;;;;;;26.23;6.65;;;;;;;1.12;100.00;104630.41;10331286;28;20394;-73
2022/03/19 03:53:18;;;;;;;26.27;9.65;;;;;;;1.26;100.00;104645.78;10314954;28;20046;-72
2022/03/19 03:58:18;;;;;;;30.95;8.25;;;;;;;1.28;100.00;104650.16;10330082;28;20154;-71
2022/03/19 04:03:19;;;;;;;23.13;7.40;;;;;;;1.31;100.00;104666.25;10298582;28;20123;-72
2022/03/19 04:08:20;;;;;;;28.08;7.63;;;;;;;1.32;100.00;104646.25;10298736;28;20532;-72
2022/03/19 04:13:21;;;;;;;22.30;7.80;;;;;;;1.27;100.00;104626.69;10283467;28;20050;-71
2022/03/19 04:18:21;;;;;;;30.42;8.40;;;;;;;1.36;100.00;104658.66;10313227;28;20608;-72
2022/03/19 04:23:22;;;;;;;21.65;7.93;;;;;;;1.34;100.00;104643.44;10282763;28;20053;-72
2022/03/19 04:28:22;;;;;;;23.13;8.27;;;;;;;1.41;100.00;104653.81;10297322;28;20061;-72
2022/03/19 04:33:23;;;;;;;27.67;8.40;;;;;;;1.45;100.00;104650.88;10313723;28;20455;-72
2022/03/19 04:38:23;;;;;;;17.48;7.18;;;;;;;1.38;100.00;104645.84;10312717;28;20043;-72
2022/03/19 04:43:24;;;;;;;28.70;8.57;;;;;;;1.44;100.00;104638.28;10330114;28;20038;-71
2022/03/19 04:48:24;;;;;;;33.90;11.73;;;;;;;1.32;100.00;104638.09;10331247;28;20414;-71
2022/03/19 04:53:25;;;;;;;20.13;8.35;;;;;;;1.34;100.00;104638.88;10299974;28;20034;-72
2022/03/19 04:58:25;;;;;;;30.85;9.48;;;;;;;1.26;100.00;104626.78;10305399;28;20046;-72
2022/03/19 05:03:26;;;;;;;27.90;8.40;;;;;;;1.23;100.00;104627.88;10320485;28;20045;-72
2022/03/19 05:08:26;;;;;;;30.80;10.07;;;;;;;1.15;100.00;104628.34;10321154;28;20552;-72
2022/03/19 05:13:27;;;;;;;20.30;8.90;;;;;;;1.11;100.00;104631.38;10322190;28;20053;-71
2022/03/19 05:18:27;;;;;;;35.83;9.57;;;;;;;1.15;100.00;104641.06;10305819;28;20039;-70
2022/03/19 05:23:28;;;;;;;25.30;10.18;;;;;;;1.08;100.00;104647.88;10321060;28;20126;-71
2022/03/19 05:28:28;;;;;;;35.92;13.00;;;;;;;1.04;100.00;104641.75;10279375;28;20114;-71
2022/03/19 05:38:48;;;;;;;32.45;11.05;;;;;;;1.19;100.00;104642.59;10339237;28;20045;-71
2022/03/19 05:43:48;;;;;;;32.72;12.18;;;;;;;1.23;100.00;104652.28;10289486;28;20049;-71
2022/03/19 05:48:49;;;;;;;29.35;11.63;;;;;;;1.26;100.00;104652.13;10271543;28;20070;-71
2022/03/19 05:53:49;;;;;;;33.33;11.55;;;;;;;1.28;100.00;104652.88;10311135;28;20038;-71
2022/03/19 05:58:51;;;;;;;35.67;12.82;;;;;;;1.30;100.00;104644.63;10248216;28;20031;-71
2022/03/19 06:03:52;;;;;;;27.73;10.20;;;;;;;1.36;100.00;104647.78;10291834;28;20156;-71
2022/03/19 06:08:53;;;;;;;29.95;11.18;;;;;;;1.35;100.00;104634.34;10334509;28;20042;-70
2022/03/19 06:13:53;;;;;;;27.20;11.52;;;;;;;1.51;100.00;104655.91;10336177;28;20084;-71
2022/03/19 06:18:54;;;;;;;24.15;10.65;;;;;;;1.55;100.00;104649.28;10302566;28;20050;-71
2022/03/19 06:23:54;;;;;;;22.40;9.95;;;;;;;1.74;100.00;104652.56;10318624;28;20046;-71
2022/03/19 06:28:55;;;;;;;21.92;8.70;;;;;;;2.01;100.00;104646.22;10316684;28;20053;-71
2022/03/19 06:33:55;;;;;;;27.85;10.05;;;;;;;2.45;100.00;104664.03;10283398;28;20038;-71
2022/03/19 06:38:56;;;;;;;22.08;8.15;;;;;;;2.71;100.00;104648.59;10301872;28;20047;-71
2022/03/19 06:43:56;;;;;;;19.63;7.97;;;;;;;2.96;100.00;104650.41;10294471;28;20058;-71
2022/03/19 06:48:57;;;;;;;18.30;6.60;;;;;;;3.26;100.00;104659.19;10269467;28;20043;-71
2022/03/19 06:53:57;;;;;;;20.27;7.25;;;;;;;3.42;100.00;104655.19;10299752;28;20065;-71
2022/03/19 06:58:58;;;;;;;15.98;6.45;;;;;;;3.64;100.00;104664.50;10317236;28;20050;-71
2022/03/19 07:03:58;;;;;;;18.88;5.40;;;;;;;3.78;100.00;104667.06;10350649;28;20038;-71
2022/03/19 07:08:59;;;;;;;24.20;6.65;;;;;;;3.91;100.00;104674.31;10333507;28;20042;-71
2022/03/19 07:14:01;;;;;;;10.80;5.28;;;;;;;4.02;100.00;104660.72;10332512;28;20050;-70
2022/03/19 07:19:01;;;;;;;16.65;6.13;;;;;;;4.17;100.00;104667.72;10331800;28;20066;-71
2022/03/19 07:24:02;;;;;;;23.60;7.47;;;;;;;4.28;100.00;104661.44;10332051;28;20046;-71
2022/03/19 07:29:02;;;;;;;19.90;6.15;;;;;;;4.44;100.00;104663.81;10300061;28;20121;-71
2022/03/19 07:34:03;;;;;;;17.35;4.78;;;;;;;4.56;100.00;104667.47;10324710;28;20046;-71
2022/03/19 07:39:04;;;;;;;27.77;8.05;;;;;;;4.64;100.00;104648.63;10332457;28;20046;-71
2022/03/19 07:44:05;;;;;;;22.02;6.05;;;;;;;4.78;100.00;104663.91;10300709;28;20042;-71
2022/03/19 07:49:05;;;;;;;17.63;6.43;;;;;;;4.65;100.00;104637.59;10315162;28;20439;-71
2022/03/19 07:54:06;;;;;;;18.70;5.78;;;;;;;4.77;100.00;104659.41;10315112;28;20050;-71
2022/03/19 07:59:06;;;;;;;17.13;5.80;;;;;;;4.80;100.00;104648.25;10329451;28;20043;-71
2022/03/19 08:04:07;;;;;;;16.75;4.53;;;;;;;4.93;100.00;104664.53;10312988;28;20034;-71
2022/03/19 08:09:08;;;;;;;21.60;4.90;;;;;;;4.98;100.00;104656.81;10331543;28;20038;-71
2022/03/19 08:14:09;;;;;;;18.25;4.50;;;;;;;5.10;100.00;104650.34;10283527;28;20045;-71
2022/03/19 08:19:12;;;;;;;17.15;5.40;;;;;;;5.12;100.00;104634.72;10282483;28;20046;-71
2022/03/19 08:24:12;;;;;;;16.55;4.70;;;;;;;5.39;100.00;104645.22;10303602;28;20045;-71
2022/03/19 08:29:13;;;;;;;16.50;4.57;;;;;;;5.46;100.00;104632.78;10283576;28;20053;-72
2022/03/19 08:34:14;;;;;;;14.80;5.18;;;;;;;5.78;100.00;104642.03;10315165;28;20771;-71
2022/03/19 08:44:33;;;;;;;12.98;4.82;;;;;;;6.03;100.00;104617.06;10312176;28;20075;-71
2022/03/19 08:49:34;;;;;;;17.90;4.38;;;;;;;6.28;100.00;104625.03;10288104;28;20046;-72
2022/03/19 08:54:34;;;;;;;16.85;4.70;;;;;;;6.57;100.00;104636.16;10314613;28;20098;-72
2022/03/19 08:59:35;;;;;;;21.67;6.18;;;;;;;6.74;100.00;104615.47;10307463;28;20038;-72
2022/03/19 09:04:35;;;;;;;19.83;4.53;;;;;;;6.67;100.00;104565.88;10288100;28;20038;-70
2022/03/19 09:09:36;;;;;;;13.45;4.00;;;;;;;7.19;100.00;104604.13;10337747;28;20038;-72
2022/03/19 09:14:36;;;;;;;24.40;5.93;;;;;;;7.38;100.00;104587.72;10325730;28;20038;-72
2022/03/19 09:19:37;;;;;;;17.58;4.47;;;;;;;7.59;100.00;104573.03;10304842;28;20527;-72
2022/03/19 09:24:38;;;;;;;15.68;4.22;;;;;;;7.91;100.00;104571.84;10289572;28;20081;-72
2022/03/19 09:29:38;;;;;;;13.73;3.40;;;;;;;8.19;100.00;104570.09;10324948;28;20078;-72
2022/03/19 09:34:39;;;;;;;12.82;3.38;;;;;;;7.93;100.00;104482.88;10340990;28;20533;-71
2022/03/19 09:39:40;;;;;;;14.43;3.13;;;;;;;8.62;100.00;104555.81;10341477;28;20077;-71
2022/03/19 09:44:43;;;;;;;16.08;3.80;;;;;;;8.83;100.00;104547.31;10320385;28;20057;-72
2022/03/19 09:49:43;;;;;;;16.25;3.03;;;;;;;9.15;100.00;104537.72;10287187;28;20247;-72
2022/03/19 09:54:44;;;;;;;13.95;2.78;;;;;;;9.49;100.00;104543.41;10287127;28;20043;-72
2022/03/19 09:59:44;;;;;;;10.05;2.85;;;;;;;9.56;100.00;104521.63;10280731;28;20552;-72
2022/03/19 10:04:45;;;;;;;10.70;3.10;;;;;;;9.85;100.00;104526.84;10299480;28;20081;-72
2022/03/19 10:09:46;;;;;;;12.70;3.20;;;;;;;9.98;100.00;104506.31;10297432;28;20034;-72
2022/03/19 10:14:51;;;;;;;9.65;2.30;;;;;;;10.18;94.83;104499.56;10283400;28;20589;-72
2022/03/19 10:19:52;;;;;;;14.80;2.58;;;;;;;10.28;93.54;104482.94;10277820;28;20042;-72
2022/03/19 10:25:00;;;;;;;7.65;2.25;;;;;;;10.33;90.98;104476.94;10294807;28;20045;-72
2022/03/19 10:30:05;;;;;;;8.65;2.17;;;;;;;10.30;89.47;104473.50;10294904;28;20031;-73
2022/03/19 10:35:24;;;;;;;4.68;1.60;;;;;;;10.37;83.90;104461.81;10334618;28;20045;-72
2022/03/19 10:40:42;;;;;;;6.25;1.77;;;;;;;10.57;83.97;104452.25;10335336;28;20475;-72
2022/03/19 10:45:50;;;;;;;9.18;1.95;;;;;;;10.94;83.54;104439.97;10300156;28;20035;-73
2022/03/19 10:50:51;;;;;;;4.50;1.65;;;;;;;11.15;81.56;104444.13;10316619;28;20056;-72
2022/03/19 10:55:52;;;;;;;2.50;1.20;;;;;;;11.63;79.61;104439.63;10316695;28;20042;-72
2022/03/19 11:00:53;;;;;;;5.38;1.20;;;;;;;11.77;74.53;104432.56;10300062;28;20106;-72
2022/03/19 11:05:56;;;;;;;4.47;1.52;;;;;;;11.81;72.00;104420.97;10330734;28;20042;-71
2022/03/19 11:10:59;;;;;;;3.17;1.00;;;;;;;12.07;73.17;104415.25;10316403;28;20050;-70
2022/03/19 11:15:59;;;;;;;5.63;1.45;;;;;;;12.16;71.22;104415.22;10298249;28;20115;-72
2022/03/19 11:21:00;;;;;;;3.15;1.10;;;;;;;12.35;70.67;104394.59;10299340;28;20050;-72
2022/03/19 11:26:00;;;;;;;7.20;1.20;;;;;;;12.48;68.60;104381.03;10332393;28;20038;-73
2022/03/19 11:31:10;;;;;;;4.30;0.90;;;;;;;12.57;66.87;104377.19;10312135;28;20045;-72
2022/03/19 11:36:11;;;;;;;3.78;0.93;;;;;;;12.64;67.33;104383.69;10303554;28;20113;-73
2022/03/19 11:41:25;;;;;;;6.30;1.05;;;;;;;12.85;67.30;104371.97;10293810;28;20039;-72
2022/03/19 11:46:26;;;;;;;4.78;1.30;;;;;;;13.05;67.00;104344.69;10325482;28;20094;-72
2022/03/19 11:51:34;;;;;;;4.32;1.10;;;;;;;13.22;66.02;104345.38;10310559;28;20038;-72
2022/03/19 11:56:40;;;;;;;6.55;1.17;;;;;;;13.29;65.05;104346.41;10312078;28;20026;-73
2022/03/19 12:01:59;;;;;;;5.80;1.30;;;;;;;13.61;65.37;104310.25;10290833;28;20038;-72
2022/03/19 12:07:00;;;;;;;4.82;1.20;;;;;;;14.06;62.73;104311.94;10322745;28;20034;-73
2022/03/19 12:12:27;;;;;;;4.47;1.05;;;;;;;14.31;57.50;104295.81;10274166;28;20046;-72
2022/03/19 12:17:27;;;;;;;8.35;1.33;;;;;;;14.96;58.61;104292.19;10307903;28;20073;-73
2022/03/19 12:22:39;;;;;;;4.55;1.30;;;;;;;15.44;58.23;104290.44;10331033;28;20042;-73
2022/03/19 12:27:55;;;;;;;6.57;1.40;;;;;;;16.44;55.64;104263.06;10347945;28;20113;-73
2022/03/19 12:32:56;;;;;;;;;;;;;;;16.81;53.75;104248.81;10330716;28;20104;-71
2022/03/19 12:37:57;;;;;;;3.55;1.10;;;;;;;16.57;52.34;104220.50;10329849;28;19924;-72
2022/03/19 12:42:58;;;;;;;4.63;1.30;;;;;;;16.26;53.33;104227.53;10320061;28;20058;-73
2022/03/19 12:47:58;;;;;;;5.28;1.35;;;;;;;16.54;50.36;104198.69;10324934;28;20554;-72
2022/03/19 12:52:59;;;;;;;5.80;1.20;;;;;;;16.22;52.49;104220.66;10308956;28;20062;-71
2022/03/19 12:58:01;;;;;;;8.27;1.85;;;;;;;17.00;52.15;104206.16;10308989;28;20037;-70
2022/03/19 13:03:01;;;;;;;3.78;1.70;;;;;;;17.24;50.42;104190.69;10293401;28;20133;-70
2022/03/19 13:08:08;;;;;;;4.47;1.80;;;;;;;17.15;47.92;104184.50;10308664;28;20034;-69
2022/03/19 13:13:09;;;;;;;3.83;1.27;;;;;;;17.23;49.39;104182.56;10319806;28;20496;-70
2022/03/19 13:18:09;;;;;;;7.97;1.70;;;;;;;16.78;50.06;104176.84;10309139;28;20050;-69
2022/03/19 13:23:10;;;;;;;5.38;1.58;;;;;;;17.08;49.52;104144.69;10314538;28;20049;-71
2022/03/19 13:28:10;;;;;;;9.00;1.90;;;;;;;17.44;50.17;104156.34;10314989;28;20039;-69
2022/03/19 13:33:15;;;;;;;6.90;1.77;;;;;;;17.69;48.58;104140.59;10342116;28;20385;-70
2022/03/19 13:38:16;;;;;;;5.90;1.13;;;;;;;17.39;47.98;104109.66;10336683;28;20039;-72
2022/03/19 13:43:18;;;;;;;8.23;1.42;;;;;;;17.57;49.58;104119.19;10321240;28;20126;-72
2022/03/19 13:48:22;;;;;;;6.60;1.30;;;;;;;18.28;49.57;104101.38;10318909;28;20097;-69
2022/03/19 13:53:22;;;;;;;4.65;1.50;;;;;;;18.54;47.22;104072.34;10335479;28;20494;-70
2022/03/19 13:58:24;;;;;;;5.65;1.40;;;;;;;18.54;47.86;104086.31;10353369;28;20037;-69
2022/03/19 14:03:25;;;;;;;5.18;0.90;;;;;;;18.87;45.40;104082.31;10334980;28;20076;-67
2022/03/19 14:08:25;;;;;;;4.45;1.20;;;;;;;18.86;43.91;104058.31;10352684;28;20037;-70
2022/03/19 14:13:38;;;;;;;5.38;0.80;;;;;;;18.87;42.46;104041.34;10350692;28;20052;-67
2022/03/19 14:18:40;;;;;;;3.47;0.93;;;;;;;18.74;42.89;104036.69;10350388;28;20039;-68
2022/03/19 14:23:42;;;;;;;4.32;1.35;;;;;;;18.95;44.43;104037.34;10318679;28;20046;-75
2022/03/19 14:28:43;;;;;;;7.63;1.52;;;;;;;19.35;42.49;104009.72;10317071;28;20073;-70
2022/03/19 14:33:44;;;;;;;3.83;1.15;;;;;;;18.95;42.97;104003.84;10310675;28;20047;-71
2022/03/19 14:38:44;;;;;;;4.13;1.20;;;;;;;18.58;43.84;104000.19;10332649;28;20046;-70
2022/03/19 14:43:46;;;;;;;4.47;1.60;;;;;;;19.14;43.80;103999.94;10323328;28;20042;-69
2022/03/19 14:48:47;;;;;;;6.00;1.48;;;;;;;18.45;42.93;103990.06;10301272;28;20047;-70
2022/03/19 14:53:47;;;;;;;4.88;1.45;;;;;;;18.51;43.98;103977.97;10333153;28;20038;-70
2022/03/19 14:58:49;;;;;;;4.68;1.38;;;;;;;18.21;43.53;103970.38;10317065;28;20038;-71
2022/03/19 15:03:50;;;;;;;4.90;1.13;;;;;;;17.78;43.20;103971.19;10317280;28;20411;-69
2022/03/19 15:08:50;;;;;;;4.57;1.40;;;;;;;18.07;44.76;103991.09;10317048;28;20077;-70
2022/03/19 15:13:51;;;;;;;5.03;1.67;;;;;;;17.93;44.56;103966.13;10349728;28;20354;-70
2022/03/19 15:18:52;;;;;;;6.38;1.55;;;;;;;17.07;43.54;103978.72;10347993;28;20694;-72
2022/03/19 15:23:53;;;;;;;7.40;1.65;;;;;;;16.55;43.53;103925.03;10330295;28;20126;-69
2022/03/19 15:28:53;;;;;;;7.70;1.88;;;;;;;16.88;45.79;103958.28;10349195;28;20062;-70
2022/03/19 15:33:54;;;;;;;5.57;1.73;;;;;;;17.38;46.49;103965.06;10347827;28;20049;-69
2022/03/19 15:38:54;;;;;;;4.22;1.52;;;;;;;17.63;44.58;103949.22;10332130;28;20321;-69
2022/03/19 15:43:55;;;;;;;5.78;1.35;;;;;;;17.42;44.60;103938.47;10316019;28;20085;-72
2022/03/19 15:48:55;;;;;;;3.50;1.42;;;;;;;17.64;44.95;103944.50;10329598;28;20053;-70
2022/03/19 15:53:56;;;;;;;4.32;1.20;;;;;;;17.71;44.75;103934.13;10348243;28;20057;-69
2022/03/19 15:58:57;;;;;;;3.42;1.25;;;;;;;17.15;45.13;103938.66;10348821;28;20414;-69
2022/03/19 16:03:58;;;;;;;3.45;1.70;;;;;;;17.19;45.10;103934.34;10328287;28;20529;-70
2022/03/19 16:08:59;;;;;;;3.83;1.23;;;;;;;17.33;44.87;103918.41;10348956;28;20042;-68
2022/03/19 16:13:59;;;;;;;4.22;1.95;;;;;;;16.40;46.56;103925.31;10348814;28;20030;-71
2022/03/19 16:19:01;;;;;;;3.72;1.23;;;;;;;16.02;48.05;103927.97;10345495;28;20042;-71
2022/03/19 16:24:02;;;;;;;3.28;0.90;;;;;;;14.24;47.49;103903.28;10311643;28;20145;-70
2022/03/19 16:29:02;;;;;;;2.53;1.27;;;;;;;12.55;49.59;103884.56;10345707;28;20065;-70
2022/03/19 16:34:03;;;;;;;3.92;0.88;;;;;;;11.79;52.30;103926.16;10347023;28;20076;-70
2022/03/19 16:39:04;;;;;;;2.58;1.25;;;;;;;11.23;55.20;103943.03;10330848;28;20039;-71
2022/03/19 16:44:04;;;;;;;1.83;1.00;;;;;;;10.86;57.90;103941.88;10328629;28;20046;-69
2022/03/19 16:49:05;;;;;;;2.42;1.00;;;;;;;10.63;59.19;103946.50;10346691;28;20035;-71
2022/03/19 16:54:05;;;;;;;4.10;1.20;;;;;;;10.48;61.15;103947.25;10337479;28;20058;-70
2022/03/19 16:59:06;;;;;;;3.42;1.48;;;;;;;10.28;63.02;103956.94;10320966;28;20362;-70
2022/03/19 17:04:06;;;;;;;5.30;1.60;;;;;;;9.90;64.72;103960.28;10320693;28;20410;-69
2022/03/19 17:09:07;;;;;;;3.45;1.70;;;;;;;9.65;67.06;103958.56;10336681;28;20043;-70
2022/03/19 17:14:09;;;;;;;2.83;1.50;;;;;;;9.33;69.36;103970.44;10352475;28;20074;-70
2022/03/19 17:19:09;;;;;;;6.20;1.80;;;;;;;9.15;71.06;103962.34;10353857;28;20053;-70
2022/03/19 17:24:10;;;;;;;5.78;1.88;;;;;;;8.90;72.72;103956.78;10352066;28;20141;-71
2022/03/19 17:29:12;;;;;;;4.20;1.20;;;;;;;8.71;74.32;103951.59;10352207;28;20038;-72
2022/03/19 17:34:12;;;;;;;5.90;2.10;;;;;;;8.60;76.44;103977.44;10334896;28;20121;-71
2022/03/19 17:39:13;;;;;;;3.35;1.88;;;;;;;8.43;77.59;103971.03;10335493;28;20471;-71
2022/03/19 17:44:14;;;;;;;6.50;1.95;;;;;;;8.28;78.49;103976.22;10333990;28;20399;-72
2022/03/19 17:49:15;;;;;;;4.35;1.50;;;;;;;8.14;79.80;103972.19;10349839;28;20034;-71
2022/03/19 17:54:16;;;;;;;4.22;2.40;;;;;;;7.91;82.15;103962.78;10333706;28;20037;-71
2022/03/19 17:59:17;;;;;;;8.68;2.13;;;;;;;7.74;84.16;103962.69;10318396;28;20034;-71
2022/03/19 18:04:17;;;;;;;6.40;1.60;;;;;;;7.60;85.32;103960.50;10332746;28;20038;-71
2022/03/19 18:09:19;;;;;;;4.53;1.80;;;;;;;7.23;84.88;103926.78;10317724;28;20088;-71
2022/03/19 18:14:20;;;;;;;4.85;1.92;;;;;;;7.40;87.13;103979.88;10334540;28;20042;-72
2022/03/19 18:19:20;;;;;;;3.80;2.22;;;;;;;7.28;89.18;103975.66;10332907;28;20054;-72
2022/03/19 18:24:21;;;;;;;3.80;2.10;;;;;;;7.21;93.70;103988.22;10278112;28;20074;-71
2022/03/19 18:29:21;;;;;;;5.30;2.08;;;;;;;7.00;98.21;103989.38;10339772;28;20066;-72
2022/03/19 18:34:22;;;;;;;7.13;2.75;;;;;;;6.78;100.00;103987.06;10333963;28;20058;-71
2022/03/19 18:39:22;;;;;;;7.70;2.92;;;;;;;6.79;100.00;103994.28;10318411;28;20498;-71
2022/03/19 18:44:23;;;;;;;3.88;2.50;;;;;;;6.74;100.00;103993.88;10333269;28;20386;-71
2022/03/19 18:49:23;;;;;;;6.90;2.75;;;;;;;6.70;100.00;103995.19;10316778;28;20035;-71
2022/03/19 18:54:23;;;;;;;4.72;2.58;;;;;;;6.61;100.00;103986.84;10317065;28;20050;-70
2022/03/19 18:59:24;;;;;;;5.78;3.10;;;;;;;6.63;100.00;104001.25;10331450;28;20046;-70
2022/03/19 19:04:25;;;;;;;5.75;3.60;;;;;;;6.49;100.00;103987.22;10331870;28;20038;-70
2022/03/19 19:09:26;;;;;;;5.18;3.65;;;;;;;6.52;100.00;104006.94;10331910;28;20485;-70
2022/03/19 19:14:26;;;;;;;6.53;3.28;;;;;;;6.42;100.00;104003.38;10329987;28;20045;-70
2022/03/19 19:19:28;;;;;;;5.78;3.38;;;;;;;6.34;100.00;103998.66;10314323;28;20043;-70
2022/03/19 19:24:28;;;;;;;4.75;3.20;;;;;;;6.35;100.00;104007.75;10330783;28;20215;-69
2022/03/19 19:29:29;;;;;;;5.82;3.53;;;;;;;6.24;100.00;103995.97;10330468;28;20034;-69
2022/03/19 19:34:29;;;;;;;6.57;3.53;;;;;;;6.11;100.00;103989.09;10330814;28;20097;-70
2022/03/19 19:39:30;;;;;;;5.68;3.55;;;;;;;6.02;100.00;103990.84;10314372;28;20034;-69
2022/03/19 19:44:31;;;;;;;5.50;3.63;;;;;;;5.97;100.00;103995.88;10313454;28;20572;-70
2022/03/19 19:49:33;;;;;;;6.72;3.88;;;;;;;5.98;100.00;104003.09;10313362;28;20049;-70
2022/03/19 19:54:40;;;;;;;7.05;3.97;;;;;;;5.89;100.00;104002.06;10329047;28;20034;-70
2022/03/19 19:59:41;;;;;;;5.65;3.75;;;;;;;5.68;100.00;103969.41;10312349;28;20045;-71
2022/03/19 20:04:42;;;;;;;9.88;4.20;;;;;;;5.72;100.00;103989.13;10329318;28;20038;-70
2022/03/19 20:09:42;;;;;;;7.30;4.22;;;;;;;5.61;100.00;103987.41;10328480;28;20046;-70
2022/03/19 20:14:43;;;;;;;7.60;4.03;;;;;;;5.47;100.00;103977.78;10313587;28;20149;-70
2022/03/19 20:19:43;;;;;;;7.15;3.70;;;;;;;5.49;100.00;103978.50;10329838;28;20042;-70
2022/03/19 20:24:45;;;;;;;7.20;4.15;;;;;;;5.26;100.00;103961.53;10329247;28;20076;-69
2022/03/19 20:29:46;;;;;;;7.75;3.92;;;;;;;5.33;100.00;103979.06;10330124;28;20062;-70
2022/03/19 20:34:46;;;;;;;6.43;4.55;;;;;;;5.22;100.00;103969.13;10330540;28;20467;-69
2022/03/19 20:39:47;;;;;;;6.55;3.95;;;;;;;5.18;100.00;103970.44;10313846;28;20034;-70
2022/03/19 20:44:48;;;;;;;9.82;4.65;;;;;;;5.14;100.00;103977.19;10329226;28;20046;-70
2022/03/19 20:55:08;;;;;;;6.80;4.78;;;;;;;4.96;100.00;103963.38;10327854;28;20117;-70
2022/03/19 21:00:10;;;;;;;10.35;5.30;;;;;;;4.91;100.00;103973.84;10313983;28;20473;-70
2022/03/19 21:05:15;;;;;;;7.38;3.90;;;;;;;4.86;100.00;103962.50;10298128;28;20431;-69
2022/03/19 21:10:22;;;;;;;8.85;4.82;;;;;;;4.81;100.00;103964.75;10312586;28;20039;-70
2022/03/19 21:15:24;;;;;;;8.27;4.65;;;;;;;4.69;100.00;103935.84;10346539;28;20049;-69
2022/03/19 21:20:25;;;;;;;9.32;4.90;;;;;;;4.69;100.00;103947.63;10328710;28;20049;-70
2022/03/19 21:25:25;;;;;;;9.85;5.63;;;;;;;4.63;100.00;103954.53;10346291;28;20046;-69
2022/03/19 21:30:26;;;;;;;7.50;4.55;;;;;;;4.58;100.00;103945.88;10298191;28;20391;-70
2022/03/19 21:35:27;;;;;;;9.23;4.82;;;;;;;4.51;100.00;103933.81;10347920;28;20536;-69
2022/03/19 21:45:51;;;;;;;8.93;4.85;;;;;;;4.38;100.00;103928.59;10353114;28;20072;-69
2022/03/19 21:50:52;;;;;;;8.82;5.20;;;;;;;4.11;100.00;103881.97;10336671;28;20042;-69
2022/03/19 21:55:53;;;;;;;11.95;6.63;;;;;;;4.41;100.00;103936.50;10320395;28;20061;-69
2022/03/19 22:00:53;;;;;;;10.35;4.60;;;;;;;4.02;100.00;103870.91;10304081;28;20042;-69
2022/03/19 22:05:54;;;;;;;8.15;4.97;;;;;;;4.28;100.00;103929.56;10316030;28;20043;-70
2022/03/19 22:10:55;;;;;;;7.82;5.22;;;;;;;4.20;100.00;103920.19;10300539;28;20042;-69
2022/03/19 22:15:55;;;;;;;11.95;5.95;;;;;;;4.14;100.00;103920.75;10302774;28;20108;-69
2022/03/19 22:21:02;;;;;;;9.10;5.38;;;;;;;4.03;100.00;103905.34;10334978;28;20089;-69
2022/03/19 22:26:02;;;;;;;13.02;6.45;;;;;;;4.01;100.00;103901.91;10301281;28;20055;-69
2022/03/19 22:31:04;;;;;;;9.60;5.68;;;;;;;3.95;100.00;103904.28;10302380;28;20283;-70
2022/03/19 22:36:04;;;;;;;8.90;5.10;;;;;;;3.81;100.00;103887.31;10296983;28;20038;-69
2022/03/19 22:41:05;;;;;;;9.60;5.68;;;;;;;3.91;100.00;103905.59;10277631;28;20043;-70
2022/03/19 22:46:06;;;;;;;13.73;5.80;;;;;;;3.81;100.00;103902.81;10331625;28;20038;-69
2022/03/19 22:51:07;;;;;;;10.32;5.47;;;;;;;3.75;100.00;103889.72;10348433;28;20050;-69
2022/03/19 22:56:08;;;;;;;9.10;5.60;;;;;;;3.54;100.00;103857.91;10334145;28;20097;-69
2022/03/19 23:01:09;;;;;;;9.05;5.30;;;;;;;3.54;100.00;103862.50;10283992;28;20038;-69
2022/03/19 23:06:10;;;;;;;9.43;6.07;;;;;;;3.62;100.00;103877.16;10341080;28;20085;-69
2022/03/19 23:11:26;;;;;;;8.82;5.78;;;;;;;3.56;100.00;103874.13;10300000;28;20034;-69
2022/03/19 23:16:26;;;;;;;9.73;5.75;;;;;;;3.43;100.00;103861.56;10332042;28;20038;-69
2022/03/19 23:21:27;;;;;;;9.57;5.68;;;;;;;3.41;100.00;103862.69;10316753;28;20090;-69